BAW628 EGLL-LGAV
Flight info
| Callsign | BAW628 |
|---|---|
| Flight time | 3h 7m |
| Altitude | 35000 |
| Route | DET2G DET L6 DVR UL9 KONAN DCT KOK UL607 SPI DCT VIBOM DCT NOMBO DCT RIDAR DCT RADIZ DCT NEMEK DCT ELTIB DCT GLOMY DCT INLOT DCT PINDO DCT SIGFO UM749 ROPOX ROPOX1W |
| Aircraft | A21N/M-SDE3FGHIJ1LRWXYZ/SB1G1 |
Departure
| Time | 2026-05-04 08:08 |
|---|---|
| Airport | London Heathrow Airport (EGLL) |
Arrival
| Time | 2026-05-04 11:16 |
|---|---|
| Airport | Athens Eleftherios Venizelos International Airport (LGAV) |
| Time | Latitude | Longitude | Altitude | Speed | Heading |
|---|---|---|---|---|---|
| 2026-05-04 07:01 | 51.47134 | -0.48603 | 92 ft | 0 kts | 269° |
| 2026-05-04 07:52 | 51.47134 | -0.48591 | 91 ft | 4 kts | 269° |
| 2026-05-04 07:52 | 51.47134 | -0.48548 | 93 ft | 4 kts | 269° |
| 2026-05-04 07:52 | 51.47134 | -0.48513 | 95 ft | 4 kts | 263° |
| 2026-05-04 07:52 | 51.47143 | -0.48479 | 94 ft | 4 kts | 212° |
| 2026-05-04 07:53 | 51.47165 | -0.48472 | 94 ft | 4 kts | 179° |
| 2026-05-04 07:54 | 51.47178 | -0.48472 | 91 ft | 0 kts | 179° |
| 2026-05-04 07:58 | 51.47174 | -0.48472 | 91 ft | 2 kts | 180° |
| 2026-05-04 07:58 | 51.47154 | -0.48473 | 93 ft | 4 kts | 181° |
| 2026-05-04 07:58 | 51.47119 | -0.48474 | 91 ft | 6 kts | 181° |
| 2026-05-04 07:59 | 51.47070 | -0.48461 | 93 ft | 8 kts | 143° |
| 2026-05-04 07:59 | 51.47037 | -0.48375 | 93 ft | 10 kts | 139° |
| 2026-05-04 07:59 | 51.46966 | -0.48353 | 93 ft | 11 kts | 182° |
| 2026-05-04 07:59 | 51.46884 | -0.48355 | 93 ft | 13 kts | 180° |
| 2026-05-04 08:00 | 51.46800 | -0.48357 | 94 ft | 11 kts | 179° |
| 2026-05-04 08:00 | 51.46743 | -0.48289 | 92 ft | 12 kts | 97° |
| 2026-05-04 08:00 | 51.46742 | -0.48155 | 92 ft | 12 kts | 90° |
| 2026-05-04 08:02 | 51.46748 | -0.47004 | 92 ft | 17 kts | 91° |
| 2026-05-04 08:02 | 51.46747 | -0.46809 | 95 ft | 18 kts | 89° |
| 2026-05-04 08:02 | 51.46747 | -0.46603 | 93 ft | 19 kts | 89° |
| 2026-05-04 08:03 | 51.46748 | -0.46385 | 92 ft | 20 kts | 91° |
| 2026-05-04 08:03 | 51.46746 | -0.46158 | 91 ft | 21 kts | 90° |
| 2026-05-04 08:03 | 51.46747 | -0.45923 | 91 ft | 22 kts | 89° |
| 2026-05-04 08:03 | 51.46749 | -0.45675 | 91 ft | 23 kts | 89° |
| 2026-05-04 08:04 | 51.46750 | -0.45435 | 91 ft | 21 kts | 90° |
| 2026-05-04 08:04 | 51.46750 | -0.45200 | 92 ft | 20 kts | 90° |
| 2026-05-04 08:04 | 51.46751 | -0.44973 | 92 ft | 20 kts | 89° |
| 2026-05-04 08:04 | 51.46752 | -0.44766 | 92 ft | 19 kts | 89° |
| 2026-05-04 08:05 | 51.46753 | -0.44548 | 92 ft | 20 kts | 89° |
| 2026-05-04 08:05 | 51.46754 | -0.44321 | 92 ft | 21 kts | 89° |
| 2026-05-04 08:05 | 51.46754 | -0.44136 | 91 ft | 15 kts | 89° |
| 2026-05-04 08:05 | 51.46771 | -0.43964 | 91 ft | 16 kts | 90° |
| 2026-05-04 08:06 | 51.46771 | -0.43792 | 92 ft | 15 kts | 89° |
| 2026-05-04 08:06 | 51.46769 | -0.43638 | 93 ft | 12 kts | 115° |
| 2026-05-04 08:06 | 51.46689 | -0.43604 | 91 ft | 13 kts | 181° |
| 2026-05-04 08:06 | 51.46590 | -0.43606 | 92 ft | 15 kts | 178° |
| 2026-05-04 08:08 | 51.46477 | -0.48004 | 365 ft | 175 kts | 272° |
| 2026-05-04 08:08 | 51.46431 | -0.49977 | 983 ft | 175 kts | 268° |
| 2026-05-04 08:10 | 51.38373 | -0.47412 | 5708 ft | 269 kts | 135° |
| 2026-05-04 08:11 | 51.37037 | -0.45271 | 6483 ft | 273 kts | 136° |
| 2026-05-04 08:11 | 51.34323 | -0.40967 | 8139 ft | 277 kts | 137° |
| 2026-05-04 08:11 | 51.32943 | -0.38779 | 8966 ft | 281 kts | 136° |
| 2026-05-04 08:12 | 51.31833 | -0.36194 | 9745 ft | 288 kts | 114° |
| 2026-05-04 08:12 | 51.31419 | -0.33010 | 10351 ft | 302 kts | 94° |
| 2026-05-04 08:12 | 51.31398 | -0.29532 | 10692 ft | 323 kts | 91° |
| 2026-05-04 08:12 | 51.31422 | -0.25873 | 10985 ft | 344 kts | 91° |
| 2026-05-04 08:13 | 51.31425 | -0.21948 | 11387 ft | 358 kts | 91° |
| 2026-05-04 08:13 | 51.31403 | -0.17942 | 12064 ft | 363 kts | 92° |
| 2026-05-04 08:13 | 51.31370 | -0.13878 | 12797 ft | 367 kts | 92° |
| 2026-05-04 08:13 | 51.31331 | -0.09788 | 13527 ft | 370 kts | 92° |
| 2026-05-04 08:14 | 51.31287 | -0.05646 | 14203 ft | 374 kts | 92° |
| 2026-05-04 08:14 | 51.31240 | -0.01470 | 14840 ft | 377 kts | 92° |
| 2026-05-04 08:14 | 51.31190 | 0.02742 | 15451 ft | 381 kts | 92° |
| 2026-05-04 08:16 | 51.30790 | 0.33331 | 19361 ft | 405 kts | 93° |
| 2026-05-04 08:16 | 51.30733 | 0.37846 | 19837 ft | 408 kts | 93° |
| 2026-05-04 08:16 | 51.30663 | 0.42410 | 20304 ft | 411 kts | 94° |
| 2026-05-04 08:17 | 51.30585 | 0.46991 | 20768 ft | 415 kts | 94° |
| 2026-05-04 08:17 | 51.30509 | 0.51631 | 21204 ft | 418 kts | 94° |
| 2026-05-04 08:17 | 51.30434 | 0.56302 | 21661 ft | 422 kts | 94° |
| 2026-05-04 08:17 | 51.30137 | 0.60900 | 22098 ft | 422 kts | 104° |
| 2026-05-04 08:19 | 51.24259 | 0.93054 | 25103 ft | 439 kts | 110° |
| 2026-05-04 08:19 | 51.23391 | 0.97736 | 25463 ft | 442 kts | 110° |
| 2026-05-04 08:20 | 51.22510 | 1.02457 | 25818 ft | 445 kts | 110° |
| 2026-05-04 08:20 | 51.21625 | 1.07198 | 26197 ft | 447 kts | 110° |
| 2026-05-04 08:20 | 51.20730 | 1.11973 | 26576 ft | 449 kts | 111° |
| 2026-05-04 08:20 | 51.19835 | 1.16747 | 26949 ft | 451 kts | 111° |
| 2026-05-04 08:21 | 51.18938 | 1.21556 | 27308 ft | 454 kts | 111° |
| 2026-05-04 08:21 | 51.18038 | 1.26392 | 27675 ft | 455 kts | 111° |
| 2026-05-04 08:21 | 51.17128 | 1.31241 | 28017 ft | 457 kts | 112° |
| 2026-05-04 08:21 | 51.16330 | 1.36166 | 28351 ft | 464 kts | 105° |
| 2026-05-04 08:22 | 51.15947 | 1.41308 | 28677 ft | 470 kts | 100° |
| 2026-05-04 08:22 | 51.15699 | 1.46516 | 28970 ft | 472 kts | 99° |
| 2026-05-04 08:24 | 51.13954 | 1.82813 | 31440 ft | 468 kts | 100° |
| 2026-05-04 08:24 | 51.13683 | 1.87980 | 31757 ft | 468 kts | 100° |
| 2026-05-04 08:24 | 51.13410 | 1.93150 | 32006 ft | 469 kts | 100° |
| 2026-05-04 08:24 | 51.13137 | 1.98327 | 32260 ft | 469 kts | 100° |
| 2026-05-04 08:25 | 51.12864 | 2.03506 | 32542 ft | 469 kts | 100° |
| 2026-05-04 08:25 | 51.12590 | 2.08683 | 32821 ft | 469 kts | 100° |
| 2026-05-04 08:25 | 51.12310 | 2.13864 | 33082 ft | 469 kts | 100° |
| 2026-05-04 08:25 | 51.12031 | 2.19033 | 33354 ft | 469 kts | 100° |
| 2026-05-04 08:26 | 51.11750 | 2.24213 | 33611 ft | 469 kts | 100° |
| 2026-05-04 08:27 | 51.09741 | 2.60335 | 34974 ft | 468 kts | 100° |
| 2026-05-04 08:28 | 51.08550 | 2.70407 | 35018 ft | 460 kts | 111° |
| 2026-05-04 08:28 | 51.06760 | 2.80175 | 34993 ft | 460 kts | 111° |
| 2026-05-04 08:29 | 51.04967 | 2.89955 | 34986 ft | 462 kts | 111° |
| 2026-05-04 08:31 | 50.98044 | 3.27499 | 34984 ft | 462 kts | 112° |
| 2026-05-04 08:33 | 50.90672 | 3.66699 | 34986 ft | 464 kts | 112° |
| 2026-05-04 08:35 | 50.83077 | 4.05818 | 34999 ft | 465 kts | 112° |
| 2026-05-04 08:35 | 50.81180 | 4.15478 | 34987 ft | 460 kts | 113° |
| 2026-05-04 08:37 | 50.74431 | 4.49379 | 34994 ft | 465 kts | 113° |
| 2026-05-04 08:38 | 50.72475 | 4.59122 | 34992 ft | 465 kts | 113° |
| 2026-05-04 08:38 | 50.70567 | 4.68871 | 34973 ft | 464 kts | 112° |
| 2026-05-04 08:40 | 50.62870 | 5.07691 | 34994 ft | 466 kts | 114° |
| 2026-05-04 08:41 | 50.60858 | 5.17423 | 34984 ft | 469 kts | 113° |
| 2026-05-04 08:41 | 50.58848 | 5.27124 | 34992 ft | 468 kts | 113° |
| 2026-05-04 08:42 | 50.56819 | 5.36852 | 34992 ft | 467 kts | 114° |
| 2026-05-04 08:42 | 50.54799 | 5.46518 | 34993 ft | 462 kts | 114° |
| 2026-05-04 08:43 | 50.52788 | 5.56080 | 34995 ft | 464 kts | 114° |
| 2026-05-04 08:43 | 50.50560 | 5.65656 | 34985 ft | 466 kts | 118° |
| 2026-05-04 08:44 | 50.47982 | 5.74979 | 34990 ft | 465 kts | 119° |
| 2026-05-04 08:46 | 50.37644 | 6.11947 | 34981 ft | 455 kts | 119° |
| 2026-05-04 08:46 | 50.35088 | 6.21010 | 34994 ft | 458 kts | 119° |
| 2026-05-04 08:47 | 50.32501 | 6.30134 | 34995 ft | 462 kts | 119° |
| 2026-05-04 08:47 | 50.29896 | 6.39319 | 34996 ft | 462 kts | 119° |
| 2026-05-04 08:48 | 50.27278 | 6.48485 | 34984 ft | 462 kts | 119° |
| 2026-05-04 08:48 | 50.24649 | 6.57676 | 34998 ft | 462 kts | 119° |
| 2026-05-04 08:49 | 50.22031 | 6.66789 | 34990 ft | 458 kts | 119° |
| 2026-05-04 08:50 | 50.12850 | 6.98487 | 35018 ft | 461 kts | 119° |
| 2026-05-04 08:51 | 50.10198 | 7.07589 | 35023 ft | 461 kts | 120° |
| 2026-05-04 08:51 | 50.07533 | 7.16669 | 35022 ft | 461 kts | 120° |
| 2026-05-04 08:52 | 50.04869 | 7.25713 | 35018 ft | 457 kts | 120° |
| 2026-05-04 08:52 | 50.02236 | 7.34627 | 35010 ft | 454 kts | 120° |
| 2026-05-04 08:54 | 49.91473 | 7.70673 | 35001 ft | 461 kts | 120° |
| 2026-05-04 08:55 | 49.88765 | 7.79665 | 34990 ft | 457 kts | 120° |
| 2026-05-04 08:55 | 49.86084 | 7.88537 | 35002 ft | 453 kts | 120° |
| 2026-05-04 09:01 | 49.57260 | 8.81943 | 35024 ft | 459 kts | 121° |
| 2026-05-04 09:01 | 49.54470 | 8.90789 | 35024 ft | 458 kts | 121° |
| 2026-05-04 09:02 | 49.51691 | 8.99579 | 35007 ft | 453 kts | 121° |
| 2026-05-04 09:02 | 49.48950 | 9.08210 | 35027 ft | 455 kts | 121° |
| 2026-05-04 09:03 | 49.46033 | 9.16907 | 35031 ft | 456 kts | 127° |
| 2026-05-04 09:03 | 49.42586 | 9.25056 | 35021 ft | 455 kts | 128° |
| 2026-05-04 09:04 | 49.39106 | 9.33173 | 35032 ft | 455 kts | 128° |
| 2026-05-04 09:04 | 49.35631 | 9.41287 | 35013 ft | 454 kts | 128° |
| 2026-05-04 09:05 | 49.32173 | 9.49345 | 35026 ft | 450 kts | 128° |
| 2026-05-04 09:05 | 49.28735 | 9.57330 | 35038 ft | 451 kts | 128° |
| 2026-05-04 09:06 | 49.25248 | 9.65408 | 35051 ft | 455 kts | 128° |
| 2026-05-04 09:08 | 49.11206 | 9.97704 | 35050 ft | 457 kts | 128° |
| 2026-05-04 09:08 | 49.07664 | 10.05767 | 35040 ft | 457 kts | 128° |
| 2026-05-04 09:09 | 49.03621 | 10.13017 | 35053 ft | 444 kts | 140° |
| 2026-05-04 09:09 | 48.99228 | 10.19637 | 35047 ft | 448 kts | 140° |
| 2026-05-04 09:10 | 48.94762 | 10.26385 | 35067 ft | 453 kts | 140° |
| 2026-05-04 09:10 | 48.90324 | 10.33106 | 35063 ft | 453 kts | 140° |
| 2026-05-04 09:11 | 48.85856 | 10.39867 | 35068 ft | 453 kts | 140° |
| 2026-05-04 09:11 | 48.81380 | 10.46600 | 35062 ft | 453 kts | 140° |
| 2026-05-04 09:12 | 48.76905 | 10.53323 | 35051 ft | 452 kts | 140° |
| 2026-05-04 09:14 | 48.59036 | 10.80039 | 35055 ft | 456 kts | 137° |
| 2026-05-04 09:14 | 48.54990 | 10.87388 | 35050 ft | 457 kts | 133° |
| 2026-05-04 09:15 | 48.50977 | 10.94863 | 35051 ft | 459 kts | 133° |
| 2026-05-04 09:15 | 48.46952 | 11.02331 | 35052 ft | 459 kts | 133° |
| 2026-05-04 09:17 | 48.28834 | 11.35582 | 35046 ft | 460 kts | 133° |
| 2026-05-04 09:18 | 48.24790 | 11.42974 | 35047 ft | 459 kts | 133° |
| 2026-05-04 09:18 | 48.20726 | 11.50370 | 35048 ft | 459 kts | 133° |
| 2026-05-04 09:19 | 48.16660 | 11.57746 | 35047 ft | 459 kts | 133° |
| 2026-05-04 09:19 | 48.12592 | 11.65104 | 35038 ft | 457 kts | 133° |
| 2026-05-04 09:20 | 48.08558 | 11.72378 | 35033 ft | 452 kts | 133° |
| 2026-05-04 09:20 | 48.04489 | 11.79682 | 35042 ft | 460 kts | 133° |
| 2026-05-04 09:21 | 48.01082 | 11.85781 | 35028 ft | 460 kts | 133° |
| 2026-05-04 09:21 | 47.96974 | 11.93125 | 35037 ft | 460 kts | 133° |
| 2026-05-04 09:22 | 47.92861 | 12.00451 | 35029 ft | 461 kts | 133° |
| 2026-05-04 09:22 | 47.88748 | 12.07788 | 35036 ft | 461 kts | 133° |
| 2026-05-04 09:23 | 47.84630 | 12.15103 | 35035 ft | 461 kts | 133° |
| 2026-05-04 09:23 | 47.80505 | 12.22410 | 35034 ft | 461 kts | 133° |
| 2026-05-04 09:25 | 47.64095 | 12.51279 | 35035 ft | 460 kts | 133° |
| 2026-05-04 09:26 | 47.59689 | 12.58029 | 35035 ft | 457 kts | 139° |
| 2026-05-04 09:26 | 47.55079 | 12.64521 | 35024 ft | 457 kts | 139° |
| 2026-05-04 09:27 | 47.50477 | 12.71035 | 35030 ft | 457 kts | 139° |
| 2026-05-04 09:27 | 47.45888 | 12.77516 | 35029 ft | 456 kts | 139° |
| 2026-05-04 09:28 | 47.41320 | 12.83938 | 35035 ft | 449 kts | 139° |
| 2026-05-04 09:28 | 47.36775 | 12.90301 | 35042 ft | 455 kts | 139° |
| 2026-05-04 09:29 | 47.32157 | 12.96743 | 35038 ft | 457 kts | 139° |
| 2026-05-04 09:29 | 47.27566 | 13.03142 | 35049 ft | 457 kts | 139° |
| 2026-05-04 09:30 | 47.22942 | 13.09567 | 35049 ft | 455 kts | 139° |
| 2026-05-04 09:30 | 47.18345 | 13.15947 | 35066 ft | 453 kts | 139° |
| 2026-05-04 09:31 | 47.13807 | 13.22262 | 35060 ft | 446 kts | 139° |
| 2026-05-04 09:31 | 47.09264 | 13.28541 | 35078 ft | 455 kts | 139° |
| 2026-05-04 09:32 | 47.04641 | 13.34912 | 35085 ft | 456 kts | 139° |
| 2026-05-04 09:34 | 46.86175 | 13.60194 | 35090 ft | 449 kts | 139° |
| 2026-05-04 09:34 | 46.81551 | 13.66483 | 35103 ft | 458 kts | 139° |
| 2026-05-04 09:35 | 46.76916 | 13.72780 | 35110 ft | 458 kts | 139° |
| 2026-05-04 09:35 | 46.72249 | 13.79100 | 35111 ft | 458 kts | 139° |
| 2026-05-04 09:37 | 46.53615 | 14.04173 | 35119 ft | 459 kts | 139° |
| 2026-05-04 09:38 | 46.48911 | 14.10456 | 35103 ft | 460 kts | 139° |
| 2026-05-04 09:38 | 46.44203 | 14.16745 | 35103 ft | 461 kts | 139° |
| 2026-05-04 09:39 | 46.39477 | 14.23035 | 35117 ft | 461 kts | 139° |
| 2026-05-04 09:39 | 46.34792 | 14.29257 | 35107 ft | 458 kts | 139° |
| 2026-05-04 09:40 | 46.30129 | 14.35435 | 35116 ft | 451 kts | 139° |
| 2026-05-04 09:40 | 46.25441 | 14.41624 | 35123 ft | 460 kts | 139° |
| 2026-05-04 09:42 | 46.06428 | 14.66589 | 35114 ft | 463 kts | 139° |
| 2026-05-04 09:43 | 46.01675 | 14.72798 | 35121 ft | 458 kts | 139° |
| 2026-05-04 09:43 | 45.97000 | 14.78883 | 35112 ft | 458 kts | 139° |
| 2026-05-04 09:44 | 45.92226 | 14.85086 | 35131 ft | 464 kts | 139° |
| 2026-05-04 09:46 | 45.73021 | 15.09882 | 35120 ft | 462 kts | 139° |
| 2026-05-04 09:46 | 45.68268 | 15.15982 | 35116 ft | 458 kts | 139° |
| 2026-05-04 09:47 | 45.63471 | 15.22124 | 35132 ft | 466 kts | 139° |
| 2026-05-04 09:49 | 45.43932 | 15.46381 | 35129 ft | 467 kts | 140° |
| 2026-05-04 09:51 | 45.26769 | 15.67271 | 35122 ft | 465 kts | 140° |
| 2026-05-04 09:51 | 45.21815 | 15.73277 | 35126 ft | 469 kts | 140° |
| 2026-05-04 09:52 | 45.16848 | 15.79280 | 35123 ft | 469 kts | 140° |
| 2026-05-04 09:52 | 45.11880 | 15.85283 | 35118 ft | 469 kts | 140° |
| 2026-05-04 09:53 | 45.06903 | 15.91262 | 35126 ft | 469 kts | 140° |
| 2026-05-04 09:53 | 45.01932 | 15.97224 | 35118 ft | 466 kts | 140° |
| 2026-05-04 09:54 | 44.97032 | 16.03094 | 35116 ft | 468 kts | 140° |
| 2026-05-04 09:54 | 44.92039 | 16.09073 | 35127 ft | 471 kts | 140° |
| 2026-05-04 09:55 | 44.87025 | 16.15043 | 35127 ft | 471 kts | 140° |
| 2026-05-04 09:55 | 44.82013 | 16.21001 | 35129 ft | 471 kts | 140° |
| 2026-05-04 09:56 | 44.76991 | 16.26959 | 35131 ft | 473 kts | 140° |
| 2026-05-04 09:56 | 44.71981 | 16.32899 | 35125 ft | 468 kts | 140° |
| 2026-05-04 09:57 | 44.67003 | 16.38783 | 35145 ft | 471 kts | 140° |
| 2026-05-04 09:57 | 44.61951 | 16.44731 | 35151 ft | 474 kts | 140° |
| 2026-05-04 09:58 | 44.56895 | 16.50671 | 35142 ft | 474 kts | 140° |
| 2026-05-04 09:58 | 44.51812 | 16.56634 | 35142 ft | 477 kts | 141° |
| 2026-05-04 10:00 | 44.31586 | 16.80204 | 35158 ft | 478 kts | 141° |
| 2026-05-04 10:04 | 43.95760 | 17.21399 | 35166 ft | 480 kts | 140° |
| 2026-05-04 10:04 | 43.90580 | 17.27303 | 35164 ft | 481 kts | 140° |
| 2026-05-04 10:05 | 43.85413 | 17.33176 | 35150 ft | 478 kts | 140° |
| 2026-05-04 10:05 | 43.80286 | 17.38989 | 35164 ft | 478 kts | 141° |
| 2026-05-04 10:06 | 43.75096 | 17.44856 | 35169 ft | 482 kts | 141° |
| 2026-05-04 10:06 | 43.69892 | 17.50730 | 35176 ft | 483 kts | 140° |
| 2026-05-04 10:08 | 43.51797 | 17.71266 | 35163 ft | 476 kts | 139° |
| 2026-05-04 10:08 | 43.46698 | 17.77228 | 35189 ft | 484 kts | 139° |
| 2026-05-04 10:09 | 43.41553 | 17.83228 | 35172 ft | 485 kts | 139° |
| 2026-05-04 10:09 | 43.36406 | 17.89215 | 35173 ft | 485 kts | 139° |
| 2026-05-04 10:10 | 43.32122 | 17.94188 | 35169 ft | 485 kts | 139° |
| 2026-05-04 10:10 | 43.26980 | 18.00143 | 35169 ft | 482 kts | 139° |
| 2026-05-04 10:11 | 43.21886 | 18.06027 | 35170 ft | 478 kts | 139° |
| 2026-05-04 10:11 | 43.16747 | 18.11957 | 35183 ft | 485 kts | 139° |
| 2026-05-04 10:12 | 43.11573 | 18.17912 | 35178 ft | 487 kts | 139° |
| 2026-05-04 10:12 | 43.06413 | 18.23832 | 35175 ft | 488 kts | 139° |
| 2026-05-04 10:13 | 43.01213 | 18.29786 | 35173 ft | 487 kts | 139° |
| 2026-05-04 10:13 | 42.96002 | 18.35740 | 35179 ft | 487 kts | 139° |
| 2026-05-04 10:14 | 42.90804 | 18.41668 | 35184 ft | 486 kts | 139° |
| 2026-05-04 10:16 | 42.70079 | 18.65156 | 35179 ft | 488 kts | 139° |
| 2026-05-04 10:16 | 42.64850 | 18.71044 | 35184 ft | 489 kts | 139° |
| 2026-05-04 10:17 | 42.59619 | 18.76921 | 35183 ft | 485 kts | 139° |
| 2026-05-04 10:19 | 42.38751 | 19.00261 | 35178 ft | 490 kts | 139° |
| 2026-05-04 10:19 | 42.33491 | 19.06105 | 35175 ft | 489 kts | 139° |
| 2026-05-04 10:20 | 42.28233 | 19.11940 | 35172 ft | 488 kts | 139° |
| 2026-05-04 10:20 | 42.23021 | 19.17703 | 35173 ft | 482 kts | 139° |
| 2026-05-04 10:21 | 42.17810 | 19.23468 | 35185 ft | 491 kts | 139° |
| 2026-05-04 10:21 | 42.12516 | 19.29297 | 35189 ft | 492 kts | 139° |
| 2026-05-04 10:22 | 42.04557 | 19.38033 | 35177 ft | 492 kts | 139° |
| 2026-05-04 10:23 | 41.99259 | 19.43864 | 35184 ft | 491 kts | 139° |
| 2026-05-04 10:25 | 41.77581 | 19.66246 | 35182 ft | 494 kts | 141° |
| 2026-05-04 10:25 | 41.72114 | 19.71848 | 35180 ft | 494 kts | 141° |
| 2026-05-04 10:26 | 41.66653 | 19.77418 | 35180 ft | 490 kts | 141° |
| 2026-05-04 10:26 | 41.61247 | 19.82924 | 35183 ft | 492 kts | 141° |
| 2026-05-04 10:27 | 41.55772 | 19.88502 | 35183 ft | 496 kts | 141° |
| 2026-05-04 10:27 | 41.50283 | 19.94075 | 35170 ft | 496 kts | 141° |
| 2026-05-04 10:28 | 41.44778 | 19.99640 | 35168 ft | 496 kts | 141° |
| 2026-05-04 10:28 | 41.39259 | 20.05198 | 35165 ft | 496 kts | 141° |
| 2026-05-04 10:29 | 41.33819 | 20.10671 | 35164 ft | 489 kts | 141° |
| 2026-05-04 10:29 | 41.28344 | 20.16184 | 35192 ft | 497 kts | 141° |
| 2026-05-04 10:30 | 41.22824 | 20.21740 | 35175 ft | 497 kts | 141° |
| 2026-05-04 10:30 | 41.17294 | 20.27281 | 35166 ft | 499 kts | 141° |
| 2026-05-04 10:31 | 41.11777 | 20.32902 | 35166 ft | 499 kts | 136° |
| 2026-05-04 10:32 | 40.94152 | 20.54744 | 35181 ft | 499 kts | 134° |
| 2026-05-04 10:33 | 40.89061 | 20.60983 | 35172 ft | 499 kts | 134° |
| 2026-05-04 10:33 | 40.83968 | 20.67214 | 35173 ft | 499 kts | 134° |
| 2026-05-04 10:34 | 40.78898 | 20.73411 | 35168 ft | 492 kts | 134° |
| 2026-05-04 10:34 | 40.73868 | 20.79544 | 35179 ft | 498 kts | 134° |
| 2026-05-04 10:35 | 40.68769 | 20.85747 | 35187 ft | 498 kts | 134° |
| 2026-05-04 10:35 | 40.63663 | 20.91942 | 35175 ft | 499 kts | 134° |
| 2026-05-04 10:36 | 40.58582 | 20.98093 | 35176 ft | 500 kts | 134° |
| 2026-05-04 10:36 | 40.53463 | 21.04278 | 35173 ft | 497 kts | 134° |
| 2026-05-04 10:37 | 40.48410 | 21.10372 | 35167 ft | 493 kts | 134° |
| 2026-05-04 10:37 | 40.43305 | 21.16519 | 35198 ft | 498 kts | 135° |
| 2026-05-04 10:39 | 40.25401 | 21.37952 | 35176 ft | 498 kts | 135° |
| 2026-05-04 10:40 | 40.20319 | 21.44007 | 35170 ft | 490 kts | 135° |
| 2026-05-04 10:40 | 40.15226 | 21.50066 | 35183 ft | 499 kts | 135° |
| 2026-05-04 10:41 | 40.10066 | 21.56186 | 35180 ft | 502 kts | 135° |
| 2026-05-04 10:41 | 40.04894 | 21.62308 | 35181 ft | 502 kts | 135° |
| 2026-05-04 10:42 | 39.99717 | 21.68423 | 35179 ft | 501 kts | 135° |
| 2026-05-04 10:42 | 39.94549 | 21.74517 | 35184 ft | 501 kts | 135° |
| 2026-05-04 10:43 | 39.89377 | 21.80600 | 35186 ft | 499 kts | 135° |
| 2026-05-04 10:45 | 39.68870 | 22.04597 | 35187 ft | 499 kts | 135° |
| 2026-05-04 10:45 | 39.63701 | 22.10616 | 35184 ft | 499 kts | 135° |
| 2026-05-04 10:46 | 39.58530 | 22.16621 | 35183 ft | 496 kts | 136° |
| 2026-05-04 10:46 | 39.53419 | 22.22547 | 35179 ft | 492 kts | 136° |
| 2026-05-04 10:47 | 39.48287 | 22.28484 | 35189 ft | 500 kts | 136° |
| 2026-05-04 10:47 | 39.43098 | 22.34476 | 35189 ft | 500 kts | 136° |
| 2026-05-04 10:49 | 39.22392 | 22.58263 | 35203 ft | 499 kts | 136° |
| 2026-05-04 10:50 | 39.17215 | 22.64174 | 35200 ft | 500 kts | 136° |
| 2026-05-04 10:52 | 38.96378 | 22.87858 | 35189 ft | 495 kts | 137° |
| 2026-05-04 10:52 | 38.91159 | 22.93764 | 35195 ft | 503 kts | 137° |
| 2026-05-04 10:54 | 38.72589 | 23.14680 | 30913 ft | 528 kts | 137° |
| 2026-05-04 10:54 | 38.69829 | 23.17771 | 30143 ft | 525 kts | 137° |
| 2026-05-04 10:56 | 38.51342 | 23.38409 | 25584 ft | 484 kts | 136° |
| 2026-05-04 10:56 | 38.48816 | 23.41218 | 24982 ft | 479 kts | 136° |
| 2026-05-04 10:56 | 38.46299 | 23.44012 | 24229 ft | 480 kts | 137° |
| 2026-05-04 10:57 | 38.43804 | 23.46780 | 23812 ft | 470 kts | 137° |
| 2026-05-04 10:57 | 38.41370 | 23.49473 | 23461 ft | 457 kts | 137° |
| 2026-05-04 10:57 | 38.38994 | 23.52105 | 22888 ft | 449 kts | 137° |
| 2026-05-04 10:57 | 38.36648 | 23.54705 | 22250 ft | 444 kts | 137° |
| 2026-05-04 10:58 | 38.34331 | 23.57266 | 21627 ft | 438 kts | 137° |
| 2026-05-04 10:58 | 38.32042 | 23.59795 | 21067 ft | 432 kts | 137° |
| 2026-05-04 10:58 | 38.29784 | 23.62290 | 20489 ft | 427 kts | 137° |
| 2026-05-04 10:58 | 38.27561 | 23.64742 | 19919 ft | 422 kts | 137° |
| 2026-05-04 10:59 | 38.25354 | 23.67172 | 19389 ft | 416 kts | 137° |
| 2026-05-04 10:59 | 38.23176 | 23.69567 | 18854 ft | 411 kts | 137° |
| 2026-05-04 10:59 | 38.21048 | 23.71896 | 18322 ft | 406 kts | 139° |
| 2026-05-04 10:59 | 38.18684 | 23.73827 | 17644 ft | 404 kts | 155° |
| 2026-05-04 11:00 | 38.15991 | 23.74785 | 16902 ft | 404 kts | 174° |
| 2026-05-04 11:01 | 38.01527 | 23.63066 | 12806 ft | 374 kts | 223° |
| 2026-05-04 11:02 | 37.99536 | 23.60969 | 12173 ft | 372 kts | 223° |
| 2026-05-04 11:02 | 37.97525 | 23.58910 | 11535 ft | 371 kts | 221° |
| 2026-05-04 11:05 | 37.73245 | 23.46590 | 7013 ft | 279 kts | 116° |
| 2026-05-04 11:06 | 37.72349 | 23.48760 | 6913 ft | 276 kts | 115° |
| 2026-05-04 11:06 | 37.71475 | 23.50911 | 6554 ft | 275 kts | 115° |
| 2026-05-04 11:06 | 37.70671 | 23.53100 | 6156 ft | 273 kts | 103° |
| 2026-05-04 11:06 | 37.70453 | 23.55413 | 5787 ft | 267 kts | 87° |
| 2026-05-04 11:08 | 37.72359 | 23.70931 | 4232 ft | 239 kts | 65° |
| 2026-05-04 11:10 | 37.78535 | 23.78948 | 3620 ft | 162 kts | 32° |
| 2026-05-04 11:12 | 37.84510 | 23.84622 | 2267 ft | 157 kts | 33° |
| 2026-05-04 11:12 | 37.85390 | 23.85459 | 2054 ft | 159 kts | 32° |
| 2026-05-04 11:12 | 37.86268 | 23.86293 | 1839 ft | 157 kts | 33° |
| 2026-05-04 11:12 | 37.87140 | 23.87124 | 1630 ft | 156 kts | 33° |
| 2026-05-04 11:13 | 37.87989 | 23.87932 | 1439 ft | 150 kts | 32° |
| 2026-05-04 11:13 | 37.88759 | 23.88665 | 1250 ft | 133 kts | 32° |
| 2026-05-04 11:13 | 37.89494 | 23.89364 | 1049 ft | 131 kts | 34° |
| 2026-05-04 11:13 | 37.90217 | 23.90053 | 856 ft | 129 kts | 37° |
| 2026-05-04 11:14 | 37.90450 | 23.90276 | 789 ft | 129 kts | 37° |
| 2026-05-04 11:16 | 37.93454 | 23.93426 | 304 ft | 12 kts | 177° |
| 2026-05-04 11:16 | 37.93392 | 23.93501 | 306 ft | 13 kts | 126° |
| 2026-05-04 11:16 | 37.93336 | 23.93602 | 308 ft | 15 kts | 128° |
| 2026-05-04 11:17 | 37.93268 | 23.93712 | 306 ft | 17 kts | 127° |
| 2026-05-04 11:17 | 37.93204 | 23.93819 | 306 ft | 13 kts | 127° |
| 2026-05-04 11:19 | 37.92975 | 23.94497 | 307 ft | 13 kts | 37° |
| 2026-05-04 11:19 | 37.93053 | 23.94570 | 310 ft | 14 kts | 37° |
| 2026-05-04 11:19 | 37.93134 | 23.94647 | 306 ft | 15 kts | 37° |
| 2026-05-04 11:19 | 37.93220 | 23.94730 | 306 ft | 15 kts | 37° |
| 2026-05-04 11:20 | 37.93287 | 23.94788 | 308 ft | 10 kts | 12° |
| 2026-05-04 11:20 | 37.93343 | 23.94749 | 309 ft | 7 kts | 322° |
| 2026-05-04 11:20 | 37.93380 | 23.94705 | 306 ft | 7 kts | 308° |
| 2026-05-04 11:20 | 37.93401 | 23.94669 | 307 ft | 4 kts | 308° |
| 2026-05-04 11:22 | 37.93410 | 23.94656 | 307 ft | 0 kts | 308° |